Pickett, Wisconsin
Current Conditions -  °F | °C
As of 6:53 PM on Monday 20 Oct 2014 (Local Time) from KOSH Reporting Station
Overcast Overcast  
Wind Chill: 51°   Ceiling: 5000
Heat Index: 51°   Visibility: 10mi
Dew Point: 44°   Wind: 7mph
Humidity: 77%   Direction: 320°NW
Pressure: 29.98"   Gusts: NA
Location:  43.91°N, 88.73°W
Report Text: KOSH 202353Z 32006KT 10SM OVC050 11/07 A2998 RMK AO2 SLP155 T01060067 10122 20106 53020
Loading
Personal Weather Stations






























Interactive Weather Map
Tropical Storm Tracking
New forecast layout! Learn more

10-Day Weather Forecast

Advertisements
Track Severe Weather on mobile